createdAt,value
2023-03-22T00:00:34.825Z,40.00
2023-03-22T00:01:34.822Z,40.40
2023-03-22T00:02:34.847Z,41.50
2023-03-22T00:03:34.762Z,45.50
2023-03-22T00:04:34.736Z,46.40
2023-03-22T00:05:34.729Z,56.50
2023-03-22T00:06:34.687Z,47.60
2023-03-22T00:07:34.707Z,43.80
2023-03-22T00:08:34.685Z,54.50
2023-03-22T00:09:34.655Z,46.90
2023-03-22T00:10:34.635Z,40.50
2023-03-22T00:11:34.643Z,52.40
2023-03-22T00:12:34.688Z,49.00
2023-03-22T00:13:35.739Z,56.30
2023-03-22T00:14:34.581Z,51.60
2023-03-22T00:15:34.576Z,55.30
2023-03-22T00:16:34.579Z,59.10
2023-03-22T00:17:34.629Z,48.80
2023-03-22T00:18:34.548Z,52.80
2023-03-22T00:19:34.544Z,48.90
2023-03-22T00:20:34.497Z,56.80
2023-03-22T00:21:34.505Z,51.50
2023-03-22T00:22:34.477Z,55.80
2023-03-22T00:23:34.583Z,60.00
2023-03-22T00:24:34.452Z,50.10
2023-03-22T00:25:34.482Z,53.40
2023-03-22T00:26:34.442Z,50.20
2023-03-22T00:27:34.435Z,50.30
2023-03-22T00:28:34.410Z,54.90
2023-03-22T00:29:34.386Z,63.90
2023-03-22T00:30:34.376Z,64.00
2023-03-22T00:31:34.429Z,54.40
2023-03-22T00:32:34.684Z,63.30
2023-03-22T00:33:34.368Z,59.60
2023-03-22T00:34:34.670Z,60.40
2023-03-22T00:35:34.337Z,62.30
2023-03-22T00:36:34.340Z,61.20
2023-03-22T00:37:34.336Z,58.20
2023-03-22T00:38:42.058Z,53.80
2023-03-22T00:39:34.297Z,56.90
2023-03-22T00:40:34.277Z,58.20
2023-03-22T00:41:34.266Z,54.50
2023-03-22T00:42:34.229Z,56.70
2023-03-22T00:43:34.222Z,53.90
2023-03-22T00:44:34.228Z,52.70
2023-03-22T00:45:34.180Z,53.80
2023-03-22T00:46:34.218Z,50.30
2023-03-22T00:47:34.174Z,52.60
2023-03-22T00:48:34.260Z,54.60
2023-03-22T00:49:34.160Z,60.20
2023-03-22T00:50:34.142Z,54.30
2023-03-22T00:51:34.138Z,52.50
2023-03-22T00:52:34.097Z,52.00
2023-03-22T00:53:34.078Z,56.10
2023-03-22T00:54:34.106Z,54.70
2023-03-22T00:55:34.067Z,56.00
2023-03-22T00:56:34.075Z,52.90
2023-03-22T00:57:34.070Z,51.70
2023-03-22T00:58:34.027Z,55.00
2023-03-22T00:59:34.027Z,61.20
2023-03-22T01:00:33.991Z,54.20
2023-03-22T01:01:34.040Z,57.60
2023-03-22T01:02:33.977Z,59.20
2023-03-22T01:03:34.019Z,65.00
2023-03-22T01:04:33.947Z,58.60
2023-03-22T01:05:33.934Z,57.50
2023-03-22T01:06:33.916Z,59.10
2023-03-22T01:07:33.935Z,62.90
2023-03-22T01:08:33.900Z,56.40
2023-03-22T01:09:33.905Z,58.60
2023-03-22T01:10:33.883Z,51.90
2023-03-22T01:11:33.855Z,54.80
2023-03-22T01:12:33.846Z,57.20
2023-03-22T01:13:33.853Z,53.90
2023-03-22T01:14:33.800Z,53.20
2023-03-22T01:15:33.787Z,51.70
2023-03-22T01:16:33.826Z,48.80
2023-03-22T01:17:33.751Z,51.60
2023-03-22T01:18:33.771Z,48.90
2023-03-22T01:19:33.753Z,47.90
2023-03-22T01:20:33.740Z,49.70
2023-03-22T01:21:33.772Z,49.90
2023-03-22T01:22:33.704Z,46.70
2023-03-22T01:23:33.698Z,48.10
2023-03-22T01:24:33.713Z,45.70
2023-03-22T01:25:33.647Z,43.70
2023-03-22T01:26:33.632Z,49.40
2023-03-22T01:27:33.654Z,51.30
2023-03-22T01:28:33.648Z,44.00
2023-03-22T01:29:33.604Z,52.70
2023-03-22T01:30:33.651Z,46.90
2023-03-22T01:31:33.582Z,46.40
2023-03-22T01:32:33.578Z,47.50
2023-03-22T01:33:33.568Z,41.70
2023-03-22T01:34:33.578Z,43.40
2023-03-22T01:35:33.531Z,41.60
2023-03-22T01:36:33.517Z,42.10
2023-03-22T01:37:33.486Z,49.30
2023-03-22T01:38:33.549Z,46.00
2023-03-22T01:39:33.510Z,49.40
2023-03-22T01:40:33.484Z,45.00
2023-03-22T01:41:33.450Z,48.50
2023-03-22T01:42:33.463Z,43.40
2023-03-22T01:43:33.407Z,43.20
2023-03-22T01:44:33.410Z,43.90
2023-03-22T01:45:33.382Z,46.80
2023-03-22T01:46:33.558Z,44.50
2023-03-22T01:47:33.393Z,41.80
2023-03-22T01:48:33.366Z,40.50
2023-03-22T01:49:33.335Z,45.80
2023-03-22T01:50:33.320Z,45.60
2023-03-22T01:51:33.342Z,41.50
2023-03-22T01:52:33.340Z,43.00
2023-03-22T01:53:33.336Z,40.10
2023-03-22T01:54:33.265Z,40.20
2023-03-22T01:55:33.262Z,36.90
2023-03-22T01:56:33.283Z,41.10
2023-03-22T01:57:33.241Z,39.80
2023-03-22T01:58:33.241Z,41.40
2023-03-22T01:59:33.215Z,38.60
2023-03-22T02:00:33.201Z,40.60
2023-03-22T02:01:33.201Z,38.80
2023-03-22T02:02:33.213Z,39.00
2023-03-22T02:03:33.182Z,35.30
2023-03-22T02:04:33.129Z,39.50
2023-03-22T02:05:33.136Z,36.80
2023-03-22T02:06:33.107Z,37.80
2023-03-22T02:07:33.122Z,42.10
2023-03-22T02:08:33.083Z,39.20
2023-03-22T02:09:33.077Z,38.10
2023-03-22T02:10:33.090Z,35.80
2023-03-22T02:11:33.053Z,35.20
2023-03-22T02:12:33.033Z,42.20
2023-03-22T02:13:33.031Z,33.10
2023-03-22T02:14:33.027Z,36.30
2023-03-22T02:15:33.090Z,33.20
2023-03-22T02:16:32.980Z,34.10
2023-03-22T02:17:32.970Z,34.80
2023-03-22T02:18:32.998Z,35.00
2023-03-22T02:19:32.945Z,34.90
2023-03-22T02:20:32.941Z,36.10
2023-03-22T02:21:32.935Z,38.00
2023-03-22T02:22:32.913Z,33.10
2023-03-22T02:23:32.869Z,34.90
2023-03-22T02:24:32.916Z,41.90
2023-03-22T02:25:32.861Z,39.70
2023-03-22T02:26:32.871Z,38.20
2023-03-22T02:27:32.838Z,38.10
2023-03-22T02:28:32.888Z,33.60
2023-03-22T02:29:32.837Z,37.70
2023-03-22T02:30:32.807Z,39.50
2023-03-22T02:31:32.846Z,37.10
2023-03-22T02:32:32.766Z,39.80
2023-03-22T02:33:32.776Z,37.40
2023-03-22T02:34:32.758Z,35.00
2023-03-22T02:35:32.821Z,41.40
2023-03-22T02:36:32.738Z,41.60
2023-03-22T02:37:32.736Z,37.30
2023-03-22T02:38:32.680Z,37.80
2023-03-22T02:39:32.672Z,37.60
2023-03-22T02:40:32.692Z,39.10
2023-03-22T02:41:32.676Z,38.30
2023-03-22T02:42:32.644Z,32.90
2023-03-22T02:43:32.646Z,39.30
2023-03-22T02:44:32.628Z,32.80
2023-03-22T02:45:32.623Z,35.30
2023-03-22T02:46:32.587Z,33.40
2023-03-22T02:47:32.580Z,34.00
2023-03-22T02:48:32.572Z,37.80
2023-03-22T02:49:32.522Z,31.30
2023-03-22T02:50:32.579Z,34.20
2023-03-22T02:51:32.531Z,33.70
2023-03-22T02:52:32.522Z,32.10
2023-03-22T02:53:32.483Z,38.00
2023-03-22T02:54:32.497Z,36.10
2023-03-22T02:55:32.477Z,37.40
2023-03-22T02:56:32.440Z,38.50
2023-03-22T02:57:32.480Z,36.30
2023-03-22T02:58:32.424Z,43.20
2023-03-22T02:59:32.390Z,40.90
2023-03-22T03:00:32.463Z,41.90
2023-03-22T03:01:32.383Z,39.70
2023-03-22T03:02:32.375Z,41.10
2023-03-22T03:03:32.367Z,39.00
2023-03-22T03:04:32.354Z,46.30
2023-03-22T03:05:32.335Z,42.60
2023-03-22T03:06:32.309Z,40.70
2023-03-22T03:07:32.325Z,44.20
2023-03-22T03:08:32.304Z,46.30
2023-03-22T03:09:32.279Z,49.70
2023-03-22T03:10:32.273Z,48.20
2023-03-22T03:11:32.464Z,46.60
2023-03-22T03:12:32.232Z,46.80
2023-03-22T03:13:32.236Z,45.80
2023-03-22T03:14:32.230Z,50.70
2023-03-22T03:15:32.221Z,51.00
2023-03-22T03:16:32.224Z,50.30
2023-03-22T03:17:32.192Z,53.10
2023-03-22T03:18:32.175Z,50.60
2023-03-22T03:19:32.179Z,52.60
2023-03-22T03:20:32.144Z,57.50
2023-03-22T03:21:32.113Z,54.80
2023-03-22T03:22:32.122Z,52.20
2023-03-22T03:23:32.126Z,49.80
2023-03-22T03:24:32.144Z,53.20
2023-03-22T03:25:32.105Z,51.60
2023-03-22T03:26:32.091Z,50.50
2023-03-22T03:27:32.073Z,56.40
2023-03-22T03:28:32.022Z,49.60
2023-03-22T03:29:32.038Z,51.20
2023-03-22T03:30:32.005Z,53.40
2023-03-22T03:31:32.052Z,51.30
2023-03-22T03:32:31.974Z,56.70
2023-03-22T03:33:31.966Z,51.00
2023-03-22T03:34:31.960Z,52.80
2023-03-22T03:35:31.975Z,48.70
2023-03-22T03:36:31.956Z,52.00
2023-03-22T03:37:31.987Z,49.90
2023-03-22T03:38:31.917Z,48.50
2023-03-22T03:39:31.898Z,52.30
2023-03-22T03:40:31.921Z,52.20
2023-03-22T03:41:31.849Z,52.90
2023-03-22T03:42:31.859Z,52.90
2023-03-22T03:43:31.844Z,53.10
2023-03-22T03:44:31.810Z,51.90
2023-03-22T03:45:31.835Z,52.70
2023-03-22T03:46:31.838Z,46.20
2023-03-22T03:47:31.791Z,51.60
2023-03-22T03:48:31.763Z,49.70
2023-03-22T03:49:31.877Z,50.10
2023-03-22T03:50:31.751Z,45.30
2023-03-22T03:51:31.739Z,49.30
2023-03-22T03:52:31.767Z,45.90
2023-03-22T03:53:31.756Z,44.30
2023-03-22T03:54:31.700Z,50.00
2023-03-22T03:55:31.692Z,48.20
2023-03-22T03:56:31.684Z,46.80
2023-03-22T03:57:31.665Z,46.50
2023-03-22T03:58:31.672Z,48.70
2023-03-22T03:59:31.626Z,49.00
2023-03-22T04:00:31.641Z,48.90
2023-03-22T04:01:31.589Z,50.60
2023-03-22T04:02:31.659Z,54.00
2023-03-22T04:03:31.589Z,50.40
2023-03-22T04:04:31.589Z,51.90
2023-03-22T04:05:31.557Z,53.50
2023-03-22T04:06:31.526Z,51.90
2023-03-22T04:07:31.598Z,56.00
2023-03-22T04:08:31.514Z,51.20
2023-03-22T04:09:31.518Z,56.90
2023-03-22T04:10:31.508Z,58.10
2023-03-22T04:11:31.462Z,54.80
2023-03-22T04:12:31.452Z,59.60
2023-03-22T04:13:31.458Z,59.70
2023-03-22T04:14:31.447Z,61.00
2023-03-22T04:15:31.480Z,55.50
2023-03-22T04:16:31.461Z,56.30
2023-03-22T04:17:31.400Z,54.90
2023-03-22T04:18:31.430Z,57.40
2023-03-22T04:19:31.384Z,57.00
2023-03-22T04:20:31.376Z,62.40
2023-03-22T04:21:31.341Z,56.20
2023-03-22T04:22:31.358Z,59.00
2023-03-22T04:23:32.496Z,55.20
2023-03-22T04:24:31.293Z,53.00
2023-03-22T04:25:31.272Z,50.30
2023-03-22T04:26:31.327Z,56.10
2023-03-22T04:27:31.289Z,49.10
2023-03-22T04:28:31.293Z,55.40
2023-03-22T04:29:31.224Z,55.00
2023-03-22T04:30:31.247Z,57.40
2023-03-22T04:31:31.287Z,51.30
2023-03-22T04:32:31.201Z,51.60
2023-03-22T04:33:31.167Z,51.70
2023-03-22T04:34:31.187Z,51.40
2023-03-22T04:35:31.212Z,59.80
2023-03-22T04:36:31.185Z,54.20
2023-03-22T04:37:31.151Z,48.60
2023-03-22T04:38:31.113Z,50.50
2023-03-22T04:39:31.091Z,44.70
2023-03-22T04:40:31.101Z,47.30
2023-03-22T04:41:31.100Z,48.80
2023-03-22T04:42:31.086Z,53.10
2023-03-22T04:43:31.050Z,47.10
2023-03-22T04:44:31.333Z,47.90
2023-03-22T04:45:31.143Z,48.30
2023-03-22T04:46:31.189Z,49.70
2023-03-22T04:47:31.265Z,49.60
2023-03-22T04:48:31.012Z,47.60
2023-03-22T04:49:30.972Z,47.90
2023-03-22T04:50:30.974Z,47.80
2023-03-22T04:51:30.938Z,48.00
2023-03-22T04:52:30.953Z,50.80
2023-03-22T04:53:30.925Z,49.90
2023-03-22T04:54:30.944Z,49.20
2023-03-22T04:55:30.912Z,45.60
2023-03-22T04:56:30.934Z,44.70
2023-03-22T04:57:30.852Z,47.00
2023-03-22T04:58:30.864Z,48.00
2023-03-22T04:59:30.848Z,46.20
2023-03-22T05:00:30.825Z,45.60
2023-03-22T05:01:34.006Z,49.10
2023-03-22T05:02:31.898Z,52.80
2023-03-22T05:03:30.777Z,45.30
2023-03-22T05:04:30.787Z,47.60
2023-03-22T05:05:30.755Z,45.50
2023-03-22T05:06:31.102Z,49.50
2023-03-22T05:07:31.260Z,48.70
2023-03-22T05:08:30.758Z,45.70
2023-03-22T05:09:30.718Z,52.10
2023-03-22T05:10:30.734Z,47.40
2023-03-22T05:11:30.686Z,48.60
2023-03-22T05:12:30.661Z,48.00
2023-03-22T05:13:30.815Z,45.60
2023-03-22T05:14:30.839Z,44.80
2023-03-22T05:15:30.716Z,46.80
2023-03-22T05:16:30.771Z,41.70
2023-03-22T05:17:30.678Z,44.30
2023-03-22T05:18:30.726Z,39.50
2023-03-22T05:19:30.654Z,45.20
2023-03-22T05:20:30.585Z,39.90
2023-03-22T05:21:30.538Z,36.40
2023-03-22T05:22:30.552Z,39.40
2023-03-22T05:23:30.585Z,43.20
2023-03-22T05:24:30.510Z,40.40
2023-03-22T05:25:30.501Z,40.00
2023-03-22T05:26:30.484Z,43.60
2023-03-22T05:27:30.479Z,40.10
2023-03-22T05:28:30.486Z,38.50
2023-03-22T05:29:30.463Z,38.00
2023-03-22T05:30:30.466Z,42.20
2023-03-22T05:31:30.462Z,43.20
2023-03-22T05:32:30.428Z,41.30
2023-03-22T05:33:30.418Z,37.90
2023-03-22T05:34:30.401Z,38.00
2023-03-22T05:35:30.408Z,38.40
2023-03-22T05:36:30.363Z,36.80
2023-03-22T05:37:30.377Z,37.60
2023-03-22T05:38:30.332Z,39.50
2023-03-22T05:39:30.348Z,37.10
2023-03-22T05:40:30.356Z,40.40
2023-03-22T05:41:30.306Z,36.00
2023-03-22T05:42:30.266Z,38.70
2023-03-22T05:43:30.269Z,36.70
2023-03-22T05:44:30.247Z,39.00
2023-03-22T05:45:30.238Z,37.90
2023-03-22T05:46:30.304Z,38.60
2023-03-22T05:47:30.234Z,38.50
2023-03-22T05:48:30.211Z,38.00
2023-03-22T05:49:30.265Z,37.70
2023-03-22T05:50:30.229Z,39.30
2023-03-22T05:51:30.256Z,34.60
2023-03-22T05:52:30.284Z,34.50
2023-03-22T05:53:30.187Z,40.20
2023-03-22T05:54:30.202Z,39.60
2023-03-22T05:55:30.165Z,35.60
2023-03-22T05:56:30.173Z,37.10
2023-03-22T05:57:30.153Z,32.90
2023-03-22T05:58:30.111Z,36.70
2023-03-22T05:59:30.128Z,34.70
2023-03-22T06:00:30.064Z,35.70
2023-03-22T06:01:30.069Z,33.40
2023-03-22T06:02:30.032Z,35.20
2023-03-22T06:03:30.085Z,32.10
2023-03-22T06:04:29.978Z,37.00
2023-03-22T06:05:29.981Z,32.70
2023-03-22T06:06:30.100Z,32.90
2023-03-22T06:07:29.981Z,37.50
2023-03-22T06:08:29.976Z,32.00
2023-03-22T06:09:29.945Z,32.30
2023-03-22T06:10:29.933Z,33.50
2023-03-22T06:11:29.914Z,29.80
2023-03-22T06:12:30.291Z,33.50
2023-03-22T06:13:29.926Z,27.60
2023-03-22T06:14:29.869Z,32.40
2023-03-22T06:15:29.864Z,33.40
2023-03-22T06:16:29.884Z,32.00
2023-03-22T06:17:29.837Z,30.10
2023-03-22T06:18:29.797Z,30.40
2023-03-22T06:19:29.831Z,29.70
2023-03-22T06:20:29.789Z,30.70
2023-03-22T06:21:29.800Z,30.00
2023-03-22T06:22:29.781Z,29.60
2023-03-22T06:23:29.755Z,28.00
2023-03-22T06:24:29.773Z,28.00
2023-03-22T06:25:29.750Z,28.30
2023-03-22T06:26:29.701Z,28.70
2023-03-22T06:27:29.689Z,28.10
2023-03-22T06:28:29.735Z,28.20
2023-03-22T06:29:29.697Z,26.90
2023-03-22T06:30:29.689Z,30.00
2023-03-22T06:31:29.648Z,28.00
2023-03-22T06:32:29.662Z,25.10
2023-03-22T06:33:29.607Z,26.20
2023-03-22T06:34:29.655Z,26.70
2023-03-22T06:35:29.589Z,26.10
2023-03-22T06:36:29.554Z,25.20
2023-03-22T06:37:29.561Z,25.60
2023-03-22T06:38:29.526Z,23.30
2023-03-22T06:39:29.557Z,28.00
2023-03-22T06:40:29.516Z,25.50
2023-03-22T06:41:29.495Z,23.50
2023-03-22T06:42:29.500Z,27.00
2023-03-22T06:43:29.485Z,24.90
2023-03-22T06:44:29.468Z,24.40
2023-03-22T06:45:29.432Z,23.80
2023-03-22T06:46:29.588Z,22.80
2023-03-22T06:47:29.447Z,28.10
2023-03-22T06:48:29.447Z,23.40
2023-03-22T06:49:29.426Z,23.10
2023-03-22T06:50:29.414Z,22.80
2023-03-22T06:51:29.379Z,22.00
2023-03-22T06:52:29.356Z,23.80
2023-03-22T06:53:29.328Z,23.70
2023-03-22T06:54:29.345Z,21.10
2023-03-22T06:55:29.328Z,23.50
2023-03-22T06:56:29.335Z,21.20
2023-03-22T06:57:29.281Z,23.00
2023-03-22T06:58:29.284Z,21.30
2023-03-22T06:59:29.269Z,21.90
2023-03-22T07:00:29.253Z,19.70
2023-03-22T07:01:29.299Z,20.50
2023-03-22T07:02:29.236Z,22.70
2023-03-22T07:03:29.231Z,19.80
2023-03-22T07:04:29.247Z,22.70
2023-03-22T07:05:29.177Z,20.00
2023-03-22T07:06:29.189Z,19.20
2023-03-22T07:07:29.207Z,21.60
2023-03-22T07:08:29.156Z,19.70
2023-03-22T07:09:29.150Z,20.00
2023-03-22T07:10:29.102Z,20.40
2023-03-22T07:11:29.157Z,17.60
2023-03-22T07:12:29.116Z,20.30
2023-03-22T07:13:29.125Z,19.30
2023-03-22T07:14:29.086Z,17.60
2023-03-22T07:15:29.095Z,16.30
2023-03-22T07:16:29.150Z,20.70
2023-03-22T07:17:29.035Z,15.30
2023-03-22T07:18:29.069Z,16.10
2023-03-22T07:19:29.063Z,16.60
2023-03-22T07:20:29.052Z,17.60
2023-03-22T07:21:29.092Z,15.60
2023-03-22T07:22:29.011Z,14.30
2023-03-22T07:23:28.941Z,17.00
2023-03-22T07:24:28.967Z,27.90
2023-03-22T07:25:28.961Z,14.10
2023-03-22T07:26:28.991Z,14.50
2023-03-22T07:27:28.926Z,17.40
2023-03-22T07:28:28.878Z,16.60
2023-03-22T07:29:28.882Z,18.70
2023-03-22T07:30:28.869Z,17.10
2023-03-22T07:31:28.917Z,13.60
2023-03-22T07:32:28.935Z,13.10
2023-03-22T07:33:28.853Z,14.20
2023-03-22T07:34:28.789Z,15.70
2023-03-22T07:35:28.825Z,13.60
2023-03-22T07:36:28.756Z,17.30
2023-03-22T07:37:28.773Z,15.60
2023-03-22T07:38:28.876Z,14.00
2023-03-22T07:39:28.807Z,14.90
2023-03-22T07:40:28.728Z,14.10
2023-03-22T07:41:28.739Z,12.20
2023-03-22T07:42:28.751Z,11.90
2023-03-22T07:43:28.690Z,11.70
2023-03-22T07:44:28.656Z,12.90
2023-03-22T07:45:28.807Z,13.90
2023-03-22T07:46:28.727Z,13.30
2023-03-22T07:47:40.317Z,12.90
2023-03-22T07:48:28.733Z,14.30
2023-03-22T07:49:28.597Z,13.50
2023-03-22T07:50:28.653Z,14.90
2023-03-22T07:51:28.586Z,14.00
2023-03-22T07:52:28.593Z,16.60
2023-03-22T07:53:28.609Z,15.90
2023-03-22T07:54:33.832Z,12.90
2023-03-22T07:55:28.562Z,12.70
2023-03-22T07:56:28.553Z,13.70
2023-03-22T07:57:28.511Z,14.00
2023-03-22T07:58:28.504Z,13.60
2023-03-22T07:59:28.553Z,12.30
2023-03-22T08:00:28.442Z,13.90
2023-03-22T08:01:28.468Z,12.50
2023-03-22T08:02:28.471Z,11.20
2023-03-22T08:03:28.521Z,11.20
2023-03-22T08:04:28.430Z,10.60
2023-03-22T08:05:28.410Z,11.00
2023-03-22T08:06:28.395Z,12.20
2023-03-22T08:07:28.484Z,10.90
2023-03-22T08:08:28.391Z,11.60
2023-03-22T08:09:28.346Z,9.40
2023-03-22T08:10:28.401Z,11.60
2023-03-22T08:11:28.353Z,11.90
2023-03-22T08:12:28.307Z,11.30
2023-03-22T08:13:28.328Z,10.50
2023-03-22T08:14:36.195Z,11.70
2023-03-22T08:15:28.319Z,10.70
2023-03-22T08:16:28.344Z,9.60
2023-03-22T08:17:28.232Z,10.70
2023-03-22T08:18:28.248Z,9.80
2023-03-22T08:19:28.221Z,10.70
2023-03-22T08:20:28.229Z,11.50
2023-03-22T08:21:28.218Z,12.30
2023-03-22T08:22:28.207Z,9.70
2023-03-22T08:23:40.618Z,13.40
2023-03-22T08:24:28.197Z,10.40
2023-03-22T08:25:28.177Z,8.40
2023-03-22T08:26:28.123Z,10.90
2023-03-22T08:27:28.141Z,10.20
2023-03-22T08:28:28.110Z,10.40
2023-03-22T08:29:28.236Z,9.30
2023-03-22T08:30:28.069Z,11.60
2023-03-22T08:31:28.183Z,9.60
2023-03-22T08:32:28.045Z,9.70
2023-03-22T08:33:28.034Z,10.20
2023-03-22T08:34:28.033Z,8.90
2023-03-22T08:35:28.109Z,11.10
2023-03-22T08:36:27.967Z,12.50
2023-03-22T08:37:27.990Z,10.10
2023-03-22T08:38:27.981Z,9.70
2023-03-22T08:39:27.960Z,10.30
2023-03-22T08:40:28.022Z,10.10
2023-03-22T08:41:27.940Z,9.40
2023-03-22T08:42:27.922Z,7.80
2023-03-22T08:43:27.920Z,8.40
2023-03-22T08:44:27.899Z,7.90
2023-03-22T08:45:27.875Z,11.20
2023-03-22T08:46:27.862Z,9.20
2023-03-22T08:47:27.866Z,9.90
2023-03-22T08:48:27.871Z,8.50
2023-03-22T08:49:27.820Z,10.60
2023-03-22T08:50:27.807Z,11.00
2023-03-22T08:51:27.813Z,8.20
2023-03-22T08:52:27.777Z,9.60
2023-03-22T08:53:27.803Z,12.20
2023-03-22T08:54:27.757Z,9.20
2023-03-22T08:55:27.733Z,9.80
2023-03-22T08:56:27.739Z,9.10
2023-03-22T08:57:27.725Z,9.20
2023-03-22T08:58:27.674Z,7.80
2023-03-22T08:59:27.677Z,9.00
2023-03-22T09:00:39.142Z,9.60
2023-03-22T09:01:27.755Z,8.90
2023-03-22T09:02:27.692Z,8.40
2023-03-22T09:03:27.650Z,8.20
2023-03-22T09:04:27.783Z,9.10
2023-03-22T09:05:27.602Z,10.00
2023-03-22T09:06:27.598Z,9.90
2023-03-22T09:07:27.621Z,11.80
2023-03-22T09:08:27.572Z,8.00
2023-03-22T09:09:27.598Z,8.30
2023-03-22T09:10:27.545Z,8.60
2023-03-22T09:11:27.532Z,8.60
2023-03-22T09:12:27.506Z,10.90
2023-03-22T09:13:27.503Z,8.10
2023-03-22T09:14:27.506Z,11.30
2023-03-22T09:15:27.504Z,8.50
2023-03-22T09:16:27.505Z,7.50
2023-03-22T09:17:27.571Z,10.10
2023-03-22T09:18:27.469Z,9.10
2023-03-22T09:19:27.401Z,8.20
2023-03-22T09:20:27.416Z,9.10
2023-03-22T09:21:27.463Z,8.20
2023-03-22T09:22:27.376Z,8.60
2023-03-22T09:23:27.380Z,8.20
2023-03-22T09:24:27.341Z,8.70
2023-03-22T09:25:27.336Z,8.20
2023-03-22T09:26:27.379Z,7.30
2023-03-22T09:27:27.311Z,10.00
2023-03-22T09:28:27.340Z,6.70
2023-03-22T09:29:27.333Z,6.90
2023-03-22T09:30:27.358Z,9.60
2023-03-22T09:31:27.380Z,9.00
2023-03-22T09:32:27.287Z,8.90
2023-03-22T09:33:27.303Z,7.30
2023-03-22T09:34:27.232Z,8.70
2023-03-22T09:35:27.304Z,6.50
2023-03-22T09:36:27.206Z,7.10
2023-03-22T09:37:27.204Z,8.70
2023-03-22T09:38:27.177Z,6.70
2023-03-22T09:39:27.160Z,5.90
2023-03-22T09:40:27.156Z,5.80
2023-03-22T09:41:27.150Z,6.20
2023-03-22T09:42:27.184Z,8.50
2023-03-22T09:43:27.138Z,8.50
2023-03-22T09:44:27.091Z,6.10
2023-03-22T09:45:27.091Z,9.60
2023-03-22T09:46:27.129Z,5.80
2023-03-22T09:47:33.209Z,7.80
2023-03-22T09:48:27.123Z,7.40
2023-03-22T09:49:27.023Z,6.80
2023-03-22T09:50:27.038Z,7.10
2023-03-22T09:51:26.997Z,7.50
2023-03-22T09:52:27.076Z,6.60
2023-03-22T09:53:26.970Z,8.30
2023-03-22T09:54:26.966Z,9.40
2023-03-22T09:55:26.948Z,6.10
2023-03-22T09:56:26.963Z,6.90
2023-03-22T09:57:26.908Z,7.30
2023-03-22T09:58:27.028Z,7.40
2023-03-22T09:59:26.903Z,6.50
2023-03-22T10:00:26.977Z,6.60
2023-03-22T10:01:27.001Z,8.20
2023-03-22T10:02:26.911Z,7.40
2023-03-22T10:03:26.833Z,6.80
2023-03-22T10:04:26.931Z,8.20
2023-03-22T10:05:26.815Z,7.70
2023-03-22T10:06:28.293Z,6.60
2023-03-22T10:07:26.789Z,8.70
2023-03-22T10:08:26.776Z,7.10
2023-03-22T10:09:26.772Z,8.00
2023-03-22T10:10:26.751Z,7.50
2023-03-22T10:11:26.801Z,7.10
2023-03-22T10:12:26.933Z,6.50
2023-03-22T10:13:26.720Z,7.60
2023-03-22T10:14:26.691Z,7.20
2023-03-22T10:15:26.711Z,6.10
2023-03-22T10:16:26.809Z,24.70
2023-03-22T10:17:26.639Z,6.10
2023-03-22T10:18:26.652Z,7.10
2023-03-22T10:19:26.624Z,7.60
2023-03-22T10:20:26.620Z,5.50
2023-03-22T10:21:26.635Z,6.20
2023-03-22T10:22:26.617Z,5.70
2023-03-22T10:23:26.603Z,5.30
2023-03-22T10:24:26.638Z,7.60
2023-03-22T10:25:26.544Z,6.70
2023-03-22T10:26:26.540Z,5.80
2023-03-22T10:27:26.512Z,5.90
2023-03-22T10:28:26.518Z,6.30
2023-03-22T10:29:26.493Z,5.20
2023-03-22T10:30:26.509Z,6.50
2023-03-22T10:31:26.543Z,6.30
2023-03-22T10:32:26.462Z,9.20
2023-03-22T10:33:26.452Z,8.80
2023-03-22T10:34:26.434Z,6.90
2023-03-22T10:35:26.483Z,5.40
2023-03-22T10:36:26.409Z,5.70
2023-03-22T10:37:26.429Z,7.30
2023-03-22T10:38:26.384Z,7.40
2023-03-22T10:39:26.372Z,5.30
2023-03-22T10:40:26.361Z,6.60
2023-03-22T10:41:26.341Z,7.40
2023-03-22T10:42:26.331Z,8.80
2023-03-22T10:43:26.343Z,7.50
2023-03-22T10:44:26.314Z,8.30
2023-03-22T10:45:26.292Z,6.90
2023-03-22T10:46:26.316Z,6.50
2023-03-22T10:47:26.288Z,7.50
2023-03-22T10:48:26.317Z,6.20
2023-03-22T10:49:26.231Z,8.30
2023-03-22T10:50:26.248Z,8.70
2023-03-22T10:51:26.214Z,7.30
2023-03-22T10:52:27.226Z,7.80
2023-03-22T10:53:26.190Z,8.20
2023-03-22T10:54:26.303Z,5.90
2023-03-22T10:55:26.158Z,7.00
2023-03-22T10:56:26.159Z,6.60
2023-03-22T10:57:26.117Z,7.10
2023-03-22T10:58:26.112Z,9.80
2023-03-22T10:59:26.099Z,7.60
2023-03-22T11:00:26.122Z,8.30
2023-03-22T11:01:26.169Z,9.30
2023-03-22T11:02:26.251Z,6.20
2023-03-22T11:03:26.047Z,5.90
2023-03-22T11:04:26.060Z,6.10
2023-03-22T11:05:26.046Z,6.00
2023-03-22T11:06:26.038Z,6.20
2023-03-22T11:07:25.992Z,6.20
2023-03-22T11:08:25.988Z,7.10
2023-03-22T11:09:25.994Z,6.30
2023-03-22T11:10:26.026Z,6.50
2023-03-22T11:11:25.990Z,4.70
2023-03-22T11:12:25.944Z,5.70
2023-03-22T11:13:25.918Z,11.80
2023-03-22T11:14:26.021Z,8.00
2023-03-22T11:15:25.899Z,5.60
2023-03-22T11:16:25.951Z,6.30
2023-03-22T11:17:25.876Z,4.40
2023-03-22T11:18:25.845Z,5.40
2023-03-22T11:19:25.885Z,5.10
2023-03-22T11:20:25.940Z,5.60
2023-03-22T11:21:25.796Z,6.70
2023-03-22T11:22:25.826Z,4.40
2023-03-22T11:23:25.859Z,5.10
2023-03-22T11:24:25.795Z,5.50
2023-03-22T11:25:25.760Z,7.60
2023-03-22T11:27:25.722Z,3.90
2023-03-22T11:28:25.738Z,6.50
2023-03-22T11:29:25.728Z,4.40
2023-03-22T11:30:25.677Z,4.20
2023-03-22T11:31:25.705Z,6.40
2023-03-22T11:32:25.730Z,5.00
2023-03-22T11:33:25.633Z,4.50
2023-03-22T11:34:25.669Z,5.00
2023-03-22T11:35:25.644Z,3.60
2023-03-22T11:36:25.622Z,5.40
2023-03-22T11:37:25.608Z,3.50
2023-03-22T11:38:25.590Z,5.10
2023-03-22T11:39:25.644Z,3.80
2023-03-22T11:40:25.596Z,7.20
2023-03-22T11:41:25.559Z,6.60
2023-03-22T11:42:25.570Z,6.90
2023-03-22T11:43:25.505Z,7.10
2023-03-22T11:44:25.506Z,5.70
2023-03-22T11:45:25.521Z,5.60
2023-03-22T11:46:25.543Z,5.00
2023-03-22T11:47:25.503Z,5.10
2023-03-22T11:48:25.639Z,4.10
2023-03-22T11:49:25.451Z,6.80
2023-03-22T11:50:25.441Z,7.20
2023-03-22T11:51:25.415Z,5.70
2023-03-22T11:52:25.417Z,5.60
2023-03-22T11:53:25.412Z,5.00
2023-03-22T11:54:25.385Z,5.10
2023-03-22T11:55:25.399Z,6.30
2023-03-22T11:56:25.355Z,9.30
2023-03-22T11:57:25.339Z,8.90
2023-03-22T11:58:25.327Z,6.80
2023-03-22T11:59:25.306Z,6.30
2023-03-22T12:00:25.298Z,5.10
2023-03-22T12:01:25.279Z,6.90
2023-03-22T12:02:25.428Z,5.00
2023-03-22T12:03:25.401Z,4.40
2023-03-22T12:04:25.341Z,4.20
2023-03-22T12:05:25.225Z,6.30
2023-03-22T12:06:25.269Z,4.60
2023-03-22T12:07:25.217Z,5.30
2023-03-22T12:08:25.251Z,6.00
2023-03-22T12:09:25.210Z,8.70
2023-03-22T12:10:25.201Z,7.80
2023-03-22T12:11:25.178Z,4.40
2023-03-22T12:12:25.167Z,5.60
2023-03-22T12:13:25.166Z,5.30
2023-03-22T12:14:25.134Z,3.50
2023-03-22T12:15:25.132Z,12.80
2023-03-22T12:16:25.386Z,3.50
2023-03-22T12:17:25.156Z,8.60
2023-03-22T12:18:25.160Z,5.10
2023-03-22T12:19:25.079Z,5.00
2023-03-22T12:20:25.079Z,5.20
2023-03-22T12:21:25.072Z,6.30
2023-03-22T12:22:25.073Z,5.60
2023-03-22T12:23:25.093Z,5.40
2023-03-22T12:24:25.100Z,3.90
2023-03-22T12:25:24.982Z,4.60
2023-03-22T12:26:25.127Z,4.40
2023-03-22T12:27:24.969Z,5.80
2023-03-22T12:28:25.096Z,4.60
2023-03-22T12:29:24.974Z,3.70
2023-03-22T12:30:24.937Z,4.90
2023-03-22T12:31:25.016Z,5.80
2023-03-22T12:32:24.965Z,4.50
2023-03-22T12:33:24.899Z,4.70
2023-03-22T12:34:24.886Z,4.20
2023-03-22T12:35:24.877Z,6.10
2023-03-22T12:36:24.880Z,4.90
2023-03-22T12:37:24.878Z,3.90
2023-03-22T12:38:24.838Z,4.70
2023-03-22T12:39:24.810Z,4.30
2023-03-22T12:40:24.787Z,4.00
2023-03-22T12:41:24.789Z,5.20
2023-03-22T12:42:24.758Z,3.90
2023-03-22T12:43:24.768Z,4.60
2023-03-22T12:44:24.750Z,4.70
2023-03-22T12:45:24.768Z,4.00
2023-03-22T12:46:24.829Z,3.90
2023-03-22T12:47:24.749Z,5.50
2023-03-22T12:48:24.756Z,4.60
2023-03-22T12:49:24.669Z,6.90
2023-03-22T12:50:24.682Z,2.70
2023-03-22T12:51:24.871Z,4.50
2023-03-22T12:52:26.422Z,4.40
2023-03-22T12:53:24.616Z,5.50
2023-03-22T12:54:24.586Z,2.20
2023-03-22T12:55:24.652Z,5.20
2023-03-22T12:56:24.581Z,3.90
2023-03-22T12:57:24.591Z,2.80
2023-03-22T12:58:24.565Z,3.40
2023-03-22T12:59:24.538Z,4.40
2023-03-22T13:00:24.553Z,4.70
2023-03-22T13:01:24.529Z,3.00
2023-03-22T13:02:24.579Z,4.40